»·PEaware :: N790KB KSMX-KBFL

N790KB :: KSMX-KBFL

FLIGHT INFORMATION

Flight Status: Arrived
Operator: Privately registered:
United States
More flights under this callsign
Pilot: Kevin B. (8904)
Aircraft: CESSNA 172 SKYHAWK
(C172)
More flights by this aircraft type
Origin: KSMX Santa Maria Pub/Capt Hancock
United States
Destination: KBFL Meadows
United States
More flights between these airports :: More routes between these airports
Route: FLW
File this flight plan on PilotEdge
Remarks: CAT-05
Altitude:
(Current/Filed)
7,500ft
Speed:
(Current/Filed)
110kts
Departed: 16-Sep-17 10:49 AM
Arrived: 16-Sep-17 11:41 AM
Distance/Time
Traveled:
76nm/0:52
Distance/Time
To Go:
Arrived

Flight Plot

Page will automatically refresh every two minutes.


Map Options




Map Legend


Flown Route
Filed Route
Departure Airport
Arrival Airport
Navaid (VOR, NDB)
Fix

Horizontal Profiles

Position Reports

Time Latitude Longitude Heading Altitude Ground
Speed
16-Sep-17 10:21 34.890683 -120.450696 1 265ft 0kts
16-Sep-17 10:22 34.890683 -120.450696 1 265ft 0kts
16-Sep-17 10:23 34.890684 -120.450696 1 265ft 0kts
16-Sep-17 10:24 34.890684 -120.450696 1 265ft 0kts
16-Sep-17 10:25 34.890684 -120.450696 1 265ft 0kts
16-Sep-17 10:26 34.890684 -120.450696 1 265ft 0kts
16-Sep-17 10:27 34.890684 -120.450696 1 265ft 0kts
16-Sep-17 10:28 34.890684 -120.450696 1 265ft 0kts
16-Sep-17 10:29 34.890684 -120.450696 1 265ft 0kts
16-Sep-17 10:30 34.890684 -120.450696 1 265ft 0kts
16-Sep-17 10:31 34.890684 -120.450696 1 265ft 0kts
16-Sep-17 10:32 34.890684 -120.450696 1 265ft 0kts
16-Sep-17 10:33 34.890684 -120.450696 1 265ft 0kts
16-Sep-17 10:34 34.890684 -120.450696 1 265ft 0kts
16-Sep-17 10:35 34.890684 -120.450696 1 265ft 0kts
16-Sep-17 10:36 34.890684 -120.450696 1 265ft 0kts
16-Sep-17 10:37 34.890684 -120.450696 1 265ft 0kts
16-Sep-17 10:38 34.890684 -120.450696 1 265ft 0kts
16-Sep-17 10:39 34.890684 -120.450696 1 265ft 0kts
16-Sep-17 10:40 34.890684 -120.450696 1 265ft 0kts
16-Sep-17 10:41 34.890684 -120.450696 1 265ft 0kts
16-Sep-17 10:42 34.890684 -120.450696 1 265ft 0kts
16-Sep-17 10:43 34.890684 -120.450696 1 265ft 0kts
16-Sep-17 10:44 34.890684 -120.450696 1 265ft 0kts
16-Sep-17 10:45 34.890684 -120.450696 1 265ft 0kts
16-Sep-17 10:46 34.890684 -120.450696 1 265ft 0kts
16-Sep-17 10:47 34.891510 -120.450073 88 265ft 15kts
16-Sep-17 10:48 34.891903 -120.446065 45 265ft 0kts
16-Sep-17 10:49 34.891903 -120.446065 45 265ft 0kts
16-Sep-17 10:50 34.891903 -120.446065 45 265ft 0kts
16-Sep-17 10:51 34.891903 -120.446065 45 265ft 0kts
16-Sep-17 10:52 34.892009 -120.445941 45 265ft 9kts
16-Sep-17 10:53 34.895159 -120.448547 318 268ft 63kts
16-Sep-17 10:54 34.910616 -120.465947 315 777ft 82kts
16-Sep-17 10:55 34.927863 -120.461813 38 1401ft 75kts
16-Sep-17 10:56 34.936710 -120.439839 77 1995ft 74kts
16-Sep-17 10:57 34.943422 -120.415714 73 2539ft 75kts
16-Sep-17 10:58 34.952083 -120.392809 55 3068ft 76kts
16-Sep-17 10:59 34.967738 -120.375320 34 3570ft 78kts
16-Sep-17 11:00 34.981960 -120.355284 62 4041ft 78kts
16-Sep-17 11:01 34.988003 -120.329211 70 4459ft 83kts
16-Sep-17 11:02 34.995269 -120.302776 85 4894ft 82kts
16-Sep-17 11:03 34.998470 -120.275276 78 5309ft 82kts
16-Sep-17 11:04 35.007621 -120.248629 68 5636ft 88kts
16-Sep-17 11:05 35.016280 -120.220780 71 5939ft 88kts
16-Sep-17 11:06 35.024133 -120.192349 73 6238ft 88kts
16-Sep-17 11:07 35.031435 -120.163846 74 6537ft 88kts
16-Sep-17 11:08 35.040539 -120.136228 68 6837ft 88kts
16-Sep-17 11:09 35.049370 -120.108531 72 7132ft 86kts
16-Sep-17 11:10 35.056739 -120.081008 74 7427ft 84kts
16-Sep-17 11:11 35.063765 -120.051207 78 7498ft 99kts
16-Sep-17 11:12 35.074270 -120.018074 72 7478ft 107kts
16-Sep-17 11:13 35.082821 -119.983225 75 7474ft 107kts
16-Sep-17 11:14 35.089878 -119.947841 77 7490ft 106kts
16-Sep-17 11:15 35.096255 -119.912549 77 7492ft 107kts
16-Sep-17 11:16 35.103174 -119.877433 76 7492ft 107kts
16-Sep-17 11:17 35.114251 -119.843928 59 7491ft 108kts
16-Sep-17 11:18 35.129542 -119.812159 62 7490ft 108kts
16-Sep-17 11:19 35.144286 -119.780131 62 7489ft 108kts
16-Sep-17 11:20 35.159119 -119.747935 62 7487ft 108kts
16-Sep-17 11:21 35.174209 -119.715795 62 7486ft 109kts
16-Sep-17 11:22 35.189605 -119.683726 62 7484ft 110kts
16-Sep-17 11:23 35.205382 -119.651484 62 7483ft 111kts
16-Sep-17 11:24 35.221587 -119.618954 62 7481ft 112kts
16-Sep-17 11:25 35.238032 -119.586261 62 7480ft 114kts
16-Sep-17 11:26 35.254658 -119.553325 62 7507ft 115kts
16-Sep-17 11:27 35.271475 -119.519908 62 7506ft 117kts
16-Sep-17 11:28 35.288502 -119.485962 62 7505ft 117kts
16-Sep-17 11:29 35.305212 -119.451923 64 7506ft 117kts
16-Sep-17 11:30 35.320064 -119.414789 68 7205ft 127kts
16-Sep-17 11:31 35.333971 -119.375025 70 6618ft 132kts
16-Sep-17 11:32 35.348037 -119.333726 70 5816ft 128kts
16-Sep-17 11:33 35.360726 -119.296317 70 4989ft 115kts
16-Sep-17 11:34 35.372566 -119.260962 70 4152ft 110kts
16-Sep-17 11:35 35.383939 -119.226310 70 3155ft 110kts
16-Sep-17 11:36 35.395028 -119.191556 70 2165ft 111kts
16-Sep-17 11:37 35.405726 -119.156658 74 1369ft 97kts
16-Sep-17 11:38 35.408705 -119.127308 87 1419ft 99kts
16-Sep-17 11:39 35.418609 -119.093650 66 1729ft 96kts
16-Sep-17 11:40 35.412957 -119.067681 126 1467ft 75kts
16-Sep-17 11:41 35.399923 -119.045902 132 1367ft 84kts
16-Sep-17 11:42 35.390804 -119.022240 48 1317ft 78kts
16-Sep-17 11:43 35.408965 -119.026085 305 1050ft 78kts
16-Sep-17 11:44 35.422911 -119.046534 316 607ft 80kts
16-Sep-17 11:45 35.434696 -119.060800 51 483ft 6kts
16-Sep-17 11:46 35.434088 -119.060891 216 481ft 0kts
16-Sep-17 11:47 35.434088 -119.060891 216 481ft 0kts
16-Sep-17 11:48 35.434081 -119.060897 215 481ft 0kts
16-Sep-17 11:49 35.434081 -119.060897 215 481ft 0kts
16-Sep-17 11:50 35.431866 -119.059798 217 477ft 0kts

Navigation Log

Ident Type
1. KSMX Airport
2. FLW Navaid
3. KBFL Airport